Time;durP1;ratioP1;P1;durP2;ratioP2;P2;SDS_P1;SDS_P2;PMS_P1;PMS_P2;Temp;Humidity;BMP_temperature;BMP_pressure;BME280_temperature;BME280_humidity;BME280_pressure;Samples;Min_cycle;Max_cycle;Signal;HPM_P1;HPM_P2
2023/09/19 00:00:51;;;;;;;2.80;1.30;;;;;;;18.08;78.09;100099.88;4152380;28;20554;-59
2023/09/19 00:02:54;;;;;;;3.80;1.45;;;;;;;18.10;77.85;100100.69;4154235;28;20037;-60
2023/09/19 00:04:57;;;;;;;4.75;1.45;;;;;;;18.09;77.38;100101.63;4151132;28;20032;-59
2023/09/19 00:07:02;;;;;;;3.72;1.13;;;;;;;18.08;77.65;100106.94;4151984;28;20046;-60
2023/09/19 00:09:10;;;;;;;3.05;1.13;;;;;;;18.10;77.58;100100.69;4152447;28;20034;-60
2023/09/19 00:11:14;;;;;;;1.38;1.23;;;;;;;18.06;77.83;100104.31;4150607;28;20714;-59
2023/09/19 00:13:16;;;;;;;2.58;1.60;;;;;;;18.00;78.08;100100.97;4139386;28;20038;-59
2023/09/19 00:15:20;;;;;;;3.67;1.20;;;;;;;18.01;77.53;100103.56;4164440;28;20041;-59
2023/09/19 00:17:24;;;;;;;6.72;1.33;;;;;;;17.97;77.51;100107.13;4153134;28;20041;-59
2023/09/19 00:19:27;;;;;;;4.10;1.10;;;;;;;17.89;78.12;100119.59;4151509;28;20528;-59
2023/09/19 00:21:32;;;;;;;3.30;1.08;;;;;;;17.85;78.20;100121.41;4149750;28;20128;-59
2023/09/19 00:23:34;;;;;;;7.65;1.45;;;;;;;17.83;78.10;100124.94;4152442;28;20033;-59
2023/09/19 00:25:38;;;;;;;4.88;1.30;;;;;;;17.80;78.35;100121.50;4148708;28;20133;-59
2023/09/19 00:27:42;;;;;;;2.20;1.08;;;;;;;17.79;78.43;100127.66;4151189;28;20488;-59
2023/09/19 00:29:44;;;;;;;3.53;1.30;;;;;;;17.71;78.63;100129.59;4136562;28;20092;-59
2023/09/19 00:31:48;;;;;;;3.75;1.40;;;;;;;17.80;78.13;100126.75;4150274;28;20124;-60
2023/09/19 00:33:53;;;;;;;2.55;1.10;;;;;;;17.71;78.42;100124.31;4149803;28;20121;-59
2023/09/19 00:35:57;;;;;;;3.40;1.55;;;;;;;17.73;78.33;100125.16;4137435;28;20165;-59
2023/09/19 00:38:00;;;;;;;8.68;1.83;;;;;;;17.71;78.45;100140.09;4147832;28;20670;-59
2023/09/19 00:40:05;;;;;;;3.67;1.13;;;;;;;17.78;78.07;100139.09;4155754;28;20076;-59
2023/09/19 00:42:08;;;;;;;4.07;1.50;;;;;;;17.82;78.12;100133.75;4153773;28;20034;-59
2023/09/19 00:44:11;;;;;;;5.10;1.58;;;;;;;17.77;78.24;100129.44;4149848;28;20072;-59
2023/09/19 00:46:17;;;;;;;3.72;1.20;;;;;;;17.73;78.68;100140.06;4139423;28;20048;-59
2023/09/19 00:48:22;;;;;;;7.38;1.48;;;;;;;17.73;78.61;100150.59;4148870;28;20124;-59
2023/09/19 00:50:28;;;;;;;5.03;1.65;;;;;;;17.76;78.50;100153.16;4148726;28;20050;-59
2023/09/19 00:52:32;;;;;;;3.60;1.70;;;;;;;17.83;77.84;100151.25;4136540;28;20034;-59
2023/09/19 00:54:35;;;;;;;4.35;1.40;;;;;;;17.72;78.49;100149.69;4168312;28;20474;-60
2023/09/19 00:56:40;;;;;;;6.45;1.67;;;;;;;17.76;78.32;100166.28;4158932;28;20539;-59
2023/09/19 00:58:43;;;;;;;5.70;1.50;;;;;;;17.73;78.63;100161.09;4139920;28;20046;-59
2023/09/19 01:00:47;;;;;;;6.13;1.65;;;;;;;17.69;78.70;100168.16;4150296;28;20079;-59
2023/09/19 01:02:50;;;;;;;3.55;1.42;;;;;;;17.70;78.39;100164.66;4140077;28;20044;-59
2023/09/19 01:04:53;;;;;;;3.35;1.25;;;;;;;17.66;78.38;100162.97;4154921;28;20048;-59
2023/09/19 01:06:58;;;;;;;2.63;1.50;;;;;;;17.68;78.61;100169.06;4150770;28;20509;-60
2023/09/19 01:09:03;;;;;;;2.35;1.17;;;;;;;17.64;78.78;100159.53;4153083;23;21456;-64
2023/09/19 01:11:14;;;;;;;3.33;1.38;;;;;;;17.68;78.65;100155.06;4147850;28;20061;-64
2023/09/19 01:13:25;;;;;;;10.98;1.85;;;;;;;17.68;78.84;100152.44;4145306;28;20575;-64
2023/09/19 01:15:40;;;;;;;14.93;2.05;;;;;;;17.63;78.40;100166.53;4149373;28;20563;-64
2023/09/19 01:17:50;;;;;;;3.28;1.30;;;;;;;17.51;79.30;100166.78;4162149;28;20514;-64
2023/09/19 01:20:17;;;;;;;2.40;1.42;;;;;;;17.53;79.02;100172.84;4146043;28;20048;-64
2023/09/19 01:22:33;;;;;;;3.15;1.33;;;;;;;17.48;79.32;100168.56;4151565;28;20050;-64
2023/09/19 01:25:09;;;;;;;6.13;1.77;;;;;;;17.61;78.83;100167.47;4147143;28;20045;-64
2023/09/19 01:27:25;;;;;;;;;;;;;;;17.56;79.07;100171.94;4120821;28;20932;-64
2023/09/19 01:29:39;;;;;;;2.97;1.42;;;;;;;17.53;79.23;100169.38;4145173;28;20016;-64
2023/09/19 01:31:47;;;;;;;4.73;2.13;;;;;;;17.59;79.13;100166.63;4154982;28;20041;-64
2023/09/19 01:33:57;;;;;;;4.47;1.40;;;;;;;17.59;79.51;100169.25;4144610;28;20046;-64
2023/09/19 01:36:00;;;;;;;2.80;1.30;;;;;;;17.69;79.23;100180.47;4145084;28;20152;-64
2023/09/19 01:38:02;;;;;;;3.63;1.60;;;;;;;17.69;78.94;100186.56;4163492;28;20172;-65
2023/09/19 01:40:16;;;;;;;4.47;1.70;;;;;;;17.67;78.86;100176.97;4145333;28;20069;-64
2023/09/19 01:42:30;;;;;;;2.55;1.48;;;;;;;17.75;78.71;100180.34;4134184;28;20449;-65
2023/09/19 01:44:44;;;;;;;1.83;1.35;;;;;;;17.76;78.57;100182.06;4163382;28;20034;-65
2023/09/19 01:46:48;;;;;;;7.10;1.90;;;;;;;17.79;78.60;100188.13;4141456;28;20530;-64
2023/09/19 01:48:57;;;;;;;2.97;1.52;;;;;;;17.84;78.84;100182.75;4164730;28;20037;-64
2023/09/19 01:51:03;;;;;;;4.18;1.75;;;;;;;17.75;78.93;100188.22;4165563;28;20064;-64
2023/09/19 01:53:18;;;;;;;4.80;1.77;;;;;;;17.81;78.69;100198.59;4164845;28;20084;-64
2023/09/19 01:55:22;;;;;;;7.30;1.52;;;;;;;17.72;79.27;100193.53;4163945;28;20045;-65
2023/09/19 01:57:29;;;;;;;2.60;1.45;;;;;;;17.77;78.84;100192.56;4138232;28;20367;-64
2023/09/19 01:59:40;;;;;;;5.10;1.48;;;;;;;17.75;79.10;100196.97;4146044;28;20053;-64
2023/09/19 02:01:45;;;;;;;2.10;1.30;;;;;;;17.78;79.32;100198.66;4145076;28;20487;-64
2023/09/19 02:03:51;;;;;;;2.80;1.35;;;;;;;17.85;78.93;100207.31;4144799;28;20042;-64
2023/09/19 02:05:54;;;;;;;5.65;1.30;;;;;;;17.87;79.16;100201.13;4126213;28;20441;-64
2023/09/19 02:08:00;;;;;;;4.30;1.38;;;;;;;17.86;78.72;100203.78;4160521;28;20041;-64
2023/09/19 02:10:05;;;;;;;6.00;1.92;;;;;;;17.88;78.71;100210.75;4145320;28;20188;-64
2023/09/19 02:12:09;;;;;;;7.00;1.70;;;;;;;17.85;79.00;100204.69;4144228;28;20041;-64
2023/09/19 02:14:13;;;;;;;3.30;1.50;;;;;;;17.90;78.87;100205.47;4144902;28;20307;-64
2023/09/19 02:16:20;;;;;;;7.60;2.03;;;;;;;17.91;78.73;100215.97;4144898;28;20124;-64
2023/09/19 02:18:23;;;;;;;5.20;1.52;;;;;;;17.86;78.90;100209.03;4166446;28;20611;-64
2023/09/19 02:20:27;;;;;;;6.25;1.70;;;;;;;17.93;78.56;100211.56;4146479;28;20468;-64
2023/09/19 02:22:30;;;;;;;6.28;1.45;;;;;;;17.93;78.90;100215.94;4144898;28;20038;-64
2023/09/19 02:24:33;;;;;;;3.65;1.48;;;;;;;17.91;78.95;100218.59;4127330;28;20054;-64
2023/09/19 02:26:36;;;;;;;3.58;1.30;;;;;;;17.79;78.87;100227.56;4134204;28;20043;-64
2023/09/19 02:28:42;;;;;;;2.75;1.50;;;;;;;17.94;78.76;100215.91;4163529;28;20544;-64
2023/09/19 02:30:48;;;;;;;3.65;1.60;;;;;;;17.92;78.69;100224.75;4161819;28;20048;-64
2023/09/19 02:32:51;;;;;;;3.25;1.40;;;;;;;17.91;79.03;100228.25;4155694;28;20037;-64
2023/09/19 02:34:54;;;;;;;5.80;1.50;;;;;;;17.86;79.09;100225.69;4150099;28;20524;-64
2023/09/19 02:36:59;;;;;;;3.13;1.25;;;;;;;17.92;79.31;100232.63;4167903;28;20041;-64
2023/09/19 02:39:04;;;;;;;2.90;1.25;;;;;;;18.02;78.87;100236.81;4168243;28;20033;-64
2023/09/19 02:41:07;;;;;;;6.50;1.90;;;;;;;17.97;78.40;100238.66;4166731;28;20065;-64
2023/09/19 02:43:12;;;;;;;;;;;;;;;17.79;78.87;100238.09;4157499;28;20034;-64
2023/09/19 02:45:14;;;;;;;5.25;1.50;;;;;;;17.80;79.47;100237.19;4140225;28;19937;-64
2023/09/19 02:47:19;;;;;;;3.83;1.77;;;;;;;17.81;79.24;100243.31;4147613;28;20131;-64
2023/09/19 02:49:22;;;;;;;8.52;1.95;;;;;;;17.93;78.51;100242.22;4152082;28;20043;-64
2023/09/19 02:51:25;;;;;;;4.63;1.50;;;;;;;17.91;78.45;100246.66;4148713;28;20040;-64
2023/09/19 02:53:31;;;;;;;5.20;1.48;;;;;;;17.79;79.07;100242.47;4170917;28;20106;-64
2023/09/19 02:55:34;;;;;;;4.03;1.40;;;;;;;17.78;79.37;100246.00;4152022;28;20056;-64
2023/09/19 02:57:40;;;;;;;2.05;1.42;;;;;;;17.76;78.78;100253.91;4149368;28;20041;-64
2023/09/19 02:59:44;;;;;;;4.80;1.65;;;;;;;17.76;79.17;100243.41;4150240;28;20037;-64
2023/09/19 03:01:47;;;;;;;3.20;1.35;;;;;;;17.69;79.63;100254.94;4151142;28;20049;-64
2023/09/19 03:03:51;;;;;;;6.88;1.48;;;;;;;17.70;80.03;100254.03;4168825;28;20045;-64
2023/09/19 03:05:54;;;;;;;3.17;1.42;;;;;;;17.74;79.83;100252.22;4148486;28;20121;-64
2023/09/19 03:08:00;;;;;;;4.95;1.40;;;;;;;17.80;79.31;100247.72;4147033;28;20038;-64
2023/09/19 03:10:05;;;;;;;3.85;1.60;;;;;;;17.81;79.11;100259.09;4134496;28;20042;-64
2023/09/19 03:12:09;;;;;;;2.25;1.10;;;;;;;17.76;79.51;100253.06;4149847;28;20509;-64
2023/09/19 03:14:12;;;;;;;5.40;1.65;;;;;;;17.75;78.79;100254.81;4145804;28;20417;-64
2023/09/19 03:16:16;;;;;;;2.83;1.20;;;;;;;17.72;79.33;100254.00;4149666;28;20081;-64
2023/09/19 03:18:20;;;;;;;;;;;;;;;17.72;79.27;100268.00;4147539;28;20421;-64
2023/09/19 03:20:25;;;;;;;3.35;1.70;;;;;;;17.77;78.63;100273.19;4152101;28;19925;-64
2023/09/19 03:22:28;;;;;;;2.97;1.30;;;;;;;17.67;78.75;100269.00;4149721;28;20104;-64
2023/09/19 03:24:33;;;;;;;3.13;1.63;;;;;;;17.66;78.97;100269.91;4147882;28;20041;-64
2023/09/19 03:26:38;;;;;;;10.18;2.10;;;;;;;17.67;79.56;100267.25;4151460;28;20033;-64
2023/09/19 03:28:42;;;;;;;7.20;1.77;;;;;;;17.63;79.71;100266.41;4152904;28;20317;-64
2023/09/19 03:30:46;;;;;;;5.43;1.45;;;;;;;17.61;79.39;100270.84;4147959;28;20049;-64
2023/09/19 03:32:51;;;;;;;3.63;1.60;;;;;;;17.61;79.65;100270.84;4154985;28;20037;-64
2023/09/19 03:34:55;;;;;;;3.90;1.80;;;;;;;17.58;79.47;100268.28;4162194;28;20072;-64
2023/09/19 03:36:59;;;;;;;4.85;1.77;;;;;;;17.58;79.41;100281.44;4168312;28;20033;-64
2023/09/19 03:39:04;;;;;;;8.73;1.60;;;;;;;17.60;79.62;100286.66;4146797;28;20128;-64
2023/09/19 03:41:08;;;;;;;5.53;2.20;;;;;;;17.57;79.67;100289.34;4152839;28;20070;-64
2023/09/19 03:43:14;;;;;;;3.17;1.75;;;;;;;17.56;79.52;100282.34;4136071;28;20137;-64
2023/09/19 03:45:18;;;;;;;4.97;1.80;;;;;;;17.54;79.60;100286.75;4143202;28;20052;-64
2023/09/19 03:47:25;;;;;;;7.10;1.75;;;;;;;17.52;79.66;100285.91;4152935;28;20535;-64
2023/09/19 03:49:30;;;;;;;3.67;1.40;;;;;;;17.45;79.36;100286.03;4148661;28;20502;-64
2023/09/19 03:51:34;;;;;;;4.38;1.60;;;;;;;17.43;79.80;100284.31;4146725;28;20065;-64
2023/09/19 03:53:37;;;;;;;4.35;2.03;;;;;;;17.47;79.55;100291.25;4142697;28;20034;-64
2023/09/19 03:55:40;;;;;;;6.07;2.33;;;;;;;17.53;78.47;100290.28;4146491;28;20042;-64
2023/09/19 03:57:49;;;;;;;7.22;2.03;;;;;;;17.46;78.46;100289.50;4147811;28;20037;-64
2023/09/19 03:59:54;;;;;;;5.32;2.15;;;;;;;17.43;77.98;100293.06;4153874;28;20042;-64
2023/09/19 04:01:58;;;;;;;;;;;;;;;17.34;78.15;100294.97;4151789;28;20133;-64
2023/09/19 04:04:07;;;;;;;6.00;1.90;;;;;;;17.33;78.79;100299.34;4164953;28;20019;-64
2023/09/19 04:06:12;;;;;;;5.22;2.35;;;;;;;17.32;78.60;100289.75;4152743;28;20092;-64
2023/09/19 04:08:15;;;;;;;5.40;1.73;;;;;;;17.35;78.82;100296.72;4154431;28;20029;-64
2023/09/19 04:10:18;;;;;;;2.80;1.80;;;;;;;17.34;78.89;100305.50;4147992;28;20043;-64
2023/09/19 04:12:22;;;;;;;3.17;1.67;;;;;;;17.34;78.87;100301.09;4165707;28;20377;-64
2023/09/19 04:14:25;;;;;;;4.30;1.75;;;;;;;17.33;78.95;100315.09;4169710;28;20060;-64
2023/09/19 04:16:29;;;;;;;3.67;1.77;;;;;;;17.32;78.60;100307.25;4169929;28;20045;-64
2023/09/19 04:18:37;;;;;;;4.20;1.77;;;;;;;17.31;78.63;100301.16;4150890;28;20404;-64
2023/09/19 04:20:40;;;;;;;2.97;1.70;;;;;;;17.29;78.62;100308.19;4155570;28;20034;-64
2023/09/19 04:22:43;;;;;;;6.65;1.88;;;;;;;17.28;78.64;100307.31;4147485;28;20043;-64
2023/09/19 04:24:46;;;;;;;7.93;2.25;;;;;;;17.28;78.79;100311.72;4146466;28;20080;-64
2023/09/19 04:26:49;;;;;;;2.80;1.60;;;;;;;17.27;78.48;100316.09;4153177;28;20125;-64
2023/09/19 04:28:52;;;;;;;5.38;1.73;;;;;;;17.26;78.29;100314.34;4150015;28;20033;-64
2023/09/19 04:30:55;;;;;;;3.90;2.20;;;;;;;17.26;78.08;100324.00;4170203;28;20404;-64
2023/09/19 04:33:02;;;;;;;6.45;2.08;;;;;;;17.23;78.03;100318.78;4169316;28;20040;-64
2023/09/19 04:35:10;;;;;;;5.47;2.05;;;;;;;17.16;78.56;100323.28;4172090;28;20045;-64
2023/09/19 04:37:14;;;;;;;4.22;2.00;;;;;;;17.13;78.51;100327.69;4169374;28;20045;-64
2023/09/19 04:39:18;;;;;;;5.05;2.85;;;;;;;17.12;78.18;100326.84;4162502;28;20033;-64
2023/09/19 04:41:22;;;;;;;4.13;1.92;;;;;;;17.10;77.80;100320.75;4172045;28;20048;-64
2023/09/19 04:43:25;;;;;;;6.15;2.00;;;;;;;17.13;77.73;100322.44;4169668;28;20505;-64
2023/09/19 04:45:29;;;;;;;8.10;2.73;;;;;;;17.10;77.54;100326.00;4161250;28;20038;-64
2023/09/19 04:47:30;;;;;;;9.77;2.97;;;;;;;17.06;77.58;100330.41;4170669;28;20037;-64
2023/09/19 04:49:35;;;;;;;5.13;2.35;;;;;;;17.05;77.64;100336.56;4170522;28;20071;-64
2023/09/19 04:51:38;;;;;;;8.65;3.35;;;;;;;17.03;77.36;100333.09;4166565;28;20033;-64
2023/09/19 04:53:41;;;;;;;9.85;2.90;;;;;;;17.03;77.56;100340.13;4174219;28;20111;-64
2023/09/19 04:55:44;;;;;;;8.93;2.85;;;;;;;17.03;76.90;100346.22;4171108;28;20044;-64
2023/09/19 04:57:47;;;;;;;8.40;3.38;;;;;;;17.01;76.73;100341.88;4168255;28;20040;-64
2023/09/19 04:59:50;;;;;;;8.68;2.30;;;;;;;16.99;76.98;100344.53;4150685;28;20036;-64
2023/09/19 05:01:52;;;;;;;8.40;2.90;;;;;;;16.97;76.86;100353.31;4167425;28;20140;-64
2023/09/19 05:03:56;;;;;;;12.27;2.88;;;;;;;16.95;77.06;100355.97;4168411;28;20536;-64
2023/09/19 05:06:00;;;;;;;6.65;2.70;;;;;;;16.97;77.36;100356.81;4162380;28;20037;-64
2023/09/19 05:08:05;;;;;;;;;;;;;;;16.96;77.08;100364.72;4166832;28;20048;-64
2023/09/19 05:10:09;;;;;;;6.55;2.40;;;;;;;16.90;76.96;100370.91;4171317;28;19925;-64
2023/09/19 05:12:12;;;;;;;8.73;3.22;;;;;;;16.91;77.01;100381.41;4167939;28;20387;-64
2023/09/19 05:14:15;;;;;;;8.18;2.40;;;;;;;16.94;76.62;100380.50;4167996;28;20504;-64
2023/09/19 05:16:18;;;;;;;14.00;3.55;;;;;;;16.96;76.32;100383.97;4165249;28;20169;-64
2023/09/19 05:18:22;;;;;;;6.60;2.53;;;;;;;16.95;76.49;100391.88;4170011;28;20124;-64
2023/09/19 05:20:29;;;;;;;18.08;2.97;;;;;;;16.95;76.40;100381.34;4167504;28;20495;-64
2023/09/19 05:22:34;;;;;;;5.47;2.22;;;;;;;16.95;76.46;100391.88;4169711;28;20044;-64
2023/09/19 05:24:36;;;;;;;;;;;;;;;16.85;76.75;100386.72;4163932;28;20041;-64
2023/09/19 05:26:39;;;;;;;5.30;2.17;;;;;;;16.87;76.89;100392.81;4164228;28;19967;-64
2023/09/19 05:28:43;;;;;;;9.48;2.20;;;;;;;16.91;76.87;100401.56;4167956;28;20175;-64
2023/09/19 05:30:47;;;;;;;4.72;1.92;;;;;;;16.89;77.00;100388.44;4168473;28;20033;-64
2023/09/19 05:32:51;;;;;;;9.43;2.63;;;;;;;16.92;76.90;100392.75;4170154;28;20033;-64
2023/09/19 05:34:56;;;;;;;3.63;1.73;;;;;;;16.96;76.74;100399.72;4150154;28;20517;-64
2023/09/19 05:36:58;;;;;;;5.65;2.25;;;;;;;16.97;76.29;100385.72;4168278;28;20052;-64
2023/09/19 05:39:03;;;;;;;10.68;2.20;;;;;;;16.97;75.87;100396.22;4165139;28;20045;-64
2023/09/19 05:41:06;;;;;;;;;;;;;;;16.88;76.16;100393.69;4169738;28;20034;-64
2023/09/19 05:43:09;;;;;;;6.00;2.28;;;;;;;16.91;76.47;100394.53;4141270;28;19927;-64
2023/09/19 05:45:13;;;;;;;6.45;2.13;;;;;;;16.96;76.24;100402.34;4168294;28;20615;-64
2023/09/19 05:47:16;;;;;;;4.78;2.15;;;;;;;17.00;75.89;100395.31;4160660;28;20033;-64
2023/09/19 05:49:21;;;;;;;2.60;1.45;;;;;;;17.03;75.74;100395.28;4167665;28;20487;-64
2023/09/19 05:51:25;;;;;;;9.45;2.88;;;;;;;17.06;75.75;100393.44;4163559;28;20064;-64
2023/09/19 05:53:28;;;;;;;7.07;2.13;;;;;;;17.06;75.84;100385.56;4156419;28;20076;-64
2023/09/19 05:55:31;;;;;;;11.45;2.90;;;;;;;17.09;75.87;100400.44;4171293;28;20076;-64
2023/09/19 05:57:34;;;;;;;5.00;2.13;;;;;;;17.10;75.91;100394.28;4172435;28;20041;-64
2023/09/19 05:59:38;;;;;;;7.10;2.38;;;;;;;17.14;75.18;100398.59;4163774;28;20148;-64
2023/09/19 06:01:42;;;;;;;5.95;2.33;;;;;;;17.13;75.29;100403.88;4166612;28;20065;-64
2023/09/19 06:03:44;;;;;;;5.55;2.03;;;;;;;17.10;74.87;100403.03;4172239;28;20072;-64
2023/09/19 06:05:49;;;;;;;5.13;2.50;;;;;;;17.15;75.35;100412.63;4151275;28;20060;-64
2023/09/19 06:07:52;;;;;;;6.18;1.98;;;;;;;17.20;75.72;100418.66;4168970;28;20127;-64
2023/09/19 06:09:55;;;;;;;5.00;2.00;;;;;;;17.22;75.64;100417.75;4170280;28;20064;-64
2023/09/19 06:12:00;;;;;;;6.57;2.00;;;;;;;17.27;75.43;100420.31;4171834;28;20472;-64
2023/09/19 06:14:03;;;;;;;;;;;;;;;17.17;75.61;100429.22;4167639;28;20496;-64
2023/09/19 06:16:06;;;;;;;5.60;1.63;;;;;;;17.23;75.57;100439.63;4165143;28;19921;-64
2023/09/19 06:18:14;;;;;;;3.92;1.75;;;;;;;17.31;75.15;100436.91;4168623;28;20102;-64
2023/09/19 06:20:19;;;;;;;5.07;1.95;;;;;;;17.32;75.21;100433.38;4163159;28;20099;-64
2023/09/19 06:22:23;;;;;;;5.68;1.70;;;;;;;17.34;74.88;100435.09;4153989;28;20528;-64
2023/09/19 06:24:27;;;;;;;4.90;1.75;;;;;;;17.35;74.33;100442.09;4166464;28;20785;-63
2023/09/19 06:26:30;;;;;;;2.92;1.50;;;;;;;17.35;74.10;100443.88;4167049;28;20092;-64
2023/09/19 06:28:35;;;;;;;5.55;1.58;;;;;;;17.35;74.23;100439.47;4151943;28;20512;-63
2023/09/19 06:30:40;;;;;;;5.68;1.67;;;;;;;17.40;73.91;100448.16;4169683;28;20045;-64
2023/09/19 06:32:43;;;;;;;8.00;1.95;;;;;;;17.41;74.25;100447.25;4171544;28;20056;-64
2023/09/19 06:34:47;;;;;;;4.57;1.80;;;;;;;17.34;73.65;100453.50;4164156;28;20048;-63
2023/09/19 06:36:49;;;;;;;4.63;1.60;;;;;;;17.37;73.56;100456.06;4156858;28;20057;-63
2023/09/19 06:38:52;;;;;;;7.03;2.22;;;;;;;17.42;73.98;100453.38;4164686;28;20041;-64
2023/09/19 06:40:55;;;;;;;6.18;1.55;;;;;;;17.40;73.57;100458.66;4164951;28;20037;-64
2023/09/19 06:42:58;;;;;;;10.05;2.13;;;;;;;17.43;72.86;100457.75;4164827;28;20052;-64
2023/09/19 06:45:03;;;;;;;6.35;1.58;;;;;;;17.41;72.77;100460.41;4164454;28;20393;-63
2023/09/19 06:47:06;;;;;;;5.22;2.38;;;;;;;17.44;72.90;100462.13;4147312;28;20081;-64
2023/09/19 06:49:10;;;;;;;15.07;2.55;;;;;;;17.47;73.19;100456.81;4148518;28;20137;-64
2023/09/19 06:51:15;;;;;;;6.45;1.52;;;;;;;17.45;73.07;100456.84;4147671;28;20038;-64
2023/09/19 06:53:17;;;;;;;6.68;2.13;;;;;;;17.52;73.19;100462.00;4148463;28;20041;-64
2023/09/19 06:55:21;;;;;;;5.68;2.10;;;;;;;17.48;72.99;100462.94;4148324;28;20065;-64
2023/09/19 06:57:24;;;;;;;5.22;2.35;;;;;;;17.50;72.83;100463.81;4151247;28;20029;-63
2023/09/19 06:59:27;;;;;;;3.10;1.58;;;;;;;17.45;72.88;100456.84;4164382;28;20045;-64
2023/09/19 07:01:31;;;;;;;8.95;2.60;;;;;;;17.50;72.75;100462.03;4143731;28;20121;-63
2023/09/19 07:03:36;;;;;;;7.88;1.90;;;;;;;17.45;72.82;100464.72;4162181;28;20136;-63
2023/09/19 07:05:40;;;;;;;5.13;1.52;;;;;;;17.47;72.73;100469.97;4165765;28;20033;-64
2023/09/19 07:07:43;;;;;;;4.97;2.13;;;;;;;17.51;73.17;100476.03;4169618;28;20056;-63
2023/09/19 07:09:48;;;;;;;3.10;1.60;;;;;;;17.59;72.66;100480.28;4189227;22;20118;-60
2023/09/19 07:11:51;;;;;;;5.80;2.10;;;;;;;17.63;72.68;100478.50;4169971;28;20037;-60
2023/09/19 07:13:54;;;;;;;6.05;2.22;;;;;;;17.69;72.49;100485.44;4172215;28;20123;-60
2023/09/19 07:15:59;;;;;;;5.65;2.55;;;;;;;17.76;72.07;100482.69;4168826;28;20045;-60
2023/09/19 07:18:04;;;;;;;11.02;2.83;;;;;;;17.87;72.21;100484.28;4168225;28;20041;-61
2023/09/19 07:20:08;;;;;;;6.95;3.05;;;;;;;17.93;71.75;100484.22;4173410;28;20041;-57
2023/09/19 07:22:11;;;;;;;8.88;2.60;;;;;;;17.93;71.51;100487.72;4168317;28;20034;-58
2023/09/19 07:24:14;;;;;;;7.22;2.70;;;;;;;17.98;71.25;100479.75;4168768;28;20033;-58
2023/09/19 07:26:17;;;;;;;7.07;2.95;;;;;;;18.02;71.07;100483.19;4172703;28;20440;-60
2023/09/19 07:28:21;;;;;;;6.10;2.40;;;;;;;18.04;71.01;100486.69;4167506;28;20037;-58
2023/09/19 07:30:23;;;;;;;7.63;2.72;;;;;;;17.93;70.76;100489.47;4167119;28;20057;-58
2023/09/19 07:32:26;;;;;;;3.63;1.77;;;;;;;17.95;71.03;100492.97;4172641;28;20416;-58
2023/09/19 07:34:30;;;;;;;6.10;2.17;;;;;;;18.02;70.50;100488.44;4170375;28;20041;-58
2023/09/19 07:36:37;;;;;;;9.75;2.67;;;;;;;18.03;70.56;100496.31;4167353;28;20040;-58
2023/09/19 07:38:40;;;;;;;6.63;2.28;;;;;;;18.03;70.75;100501.59;4170478;28;20651;-58
2023/09/19 07:40:43;;;;;;;18.83;3.83;;;;;;;18.00;70.56;100506.03;4163806;28;20065;-58
2023/09/19 07:42:46;;;;;;;11.70;2.55;;;;;;;18.07;70.38;100500.66;4178949;28;20377;-58
2023/09/19 07:44:50;;;;;;;12.07;2.63;;;;;;;18.14;70.57;100510.19;4168913;28;20040;-58
2023/09/19 07:46:54;;;;;;;13.82;2.88;;;;;;;18.13;69.68;100507.56;4162671;28;20460;-58
2023/09/19 07:48:58;;;;;;;9.13;2.17;;;;;;;18.24;69.10;100508.28;4165110;28;20037;-58
2023/09/19 07:51:04;;;;;;;7.38;2.75;;;;;;;18.28;68.68;100506.44;4165392;28;20091;-58
2023/09/19 07:53:07;;;;;;;7.18;1.73;;;;;;;18.26;67.98;100497.72;4168612;28;20056;-58
2023/09/19 07:55:11;;;;;;;7.50;1.90;;;;;;;18.36;67.70;100511.59;4165264;28;20042;-58
2023/09/19 07:57:15;;;;;;;9.52;2.05;;;;;;;18.30;63.79;100507.31;4166558;28;20033;-60
2023/09/19 07:59:17;;;;;;;9.00;2.22;;;;;;;18.30;64.00;100508.16;4172227;28;20106;-60
2023/09/19 08:01:23;;;;;;;4.05;1.52;;;;;;;18.41;63.91;100509.75;4167054;28;20045;-60
2023/09/19 08:03:26;;;;;;;3.80;1.50;;;;;;;18.40;64.12;100511.50;4165260;28;20037;-58
2023/09/19 08:05:29;;;;;;;11.07;2.17;;;;;;;18.52;64.15;100506.94;4168723;28;20060;-57
2023/09/19 08:07:36;;;;;;;9.27;2.05;;;;;;;18.54;63.87;100513.88;4171451;28;20048;-58
2023/09/19 08:09:39;;;;;;;7.70;1.95;;;;;;;18.62;63.56;100514.63;4166593;28;20075;-58
2023/09/19 08:11:42;;;;;;;18.67;2.80;;;;;;;18.62;62.06;100526.94;4169416;28;20124;-58
2023/09/19 08:13:46;;;;;;;10.38;2.47;;;;;;;18.61;62.70;100519.94;4162535;28;20037;-58
2023/09/19 08:15:50;;;;;;;9.27;1.95;;;;;;;18.60;62.43;100528.72;4169605;28;20069;-58
2023/09/19 08:17:53;;;;;;;14.02;2.47;;;;;;;18.59;60.87;100529.63;4166293;28;20132;-58
2023/09/19 08:19:57;;;;;;;12.30;2.55;;;;;;;18.43;60.46;100532.53;4167081;28;20540;-58
2023/09/19 08:22:00;;;;;;;8.13;1.88;;;;;;;18.51;61.25;100539.41;4182543;28;20068;-58
2023/09/19 08:24:05;;;;;;;8.77;2.37;;;;;;;18.46;60.61;100545.63;4167145;28;20041;-58
2023/09/19 08:26:08;;;;;;;12.25;2.47;;;;;;;18.50;59.36;100549.09;4170046;28;20399;-58
2023/09/19 08:28:12;;;;;;;5.97;2.05;;;;;;;18.48;59.17;100554.34;4168430;28;20408;-58
2023/09/19 08:30:15;;;;;;;4.72;1.90;;;;;;;18.54;59.43;100561.28;4166447;28;20136;-58
2023/09/19 08:32:23;;;;;;;6.07;1.85;;;;;;;18.62;59.34;100554.13;4171738;28;20076;-58
2023/09/19 08:34:27;;;;;;;6.60;2.05;;;;;;;18.72;58.54;100548.69;4166662;28;20041;-58
2023/09/19 08:36:30;;;;;;;9.23;1.93;;;;;;;18.74;59.23;100554.81;4168035;28;20119;-58
2023/09/19 08:38:34;;;;;;;8.20;1.75;;;;;;;18.82;58.76;100556.41;4161027;28;20044;-58
2023/09/19 08:40:41;;;;;;;7.72;2.58;;;;;;;18.90;57.18;100563.34;4164353;28;20220;-58
2023/09/19 08:42:51;;;;;;;6.47;2.50;;;;;;;18.95;57.34;100561.47;4162868;28;20038;-58
2023/09/19 08:44:55;;;;;;;9.02;2.40;;;;;;;19.02;57.84;100563.09;4162526;28;20057;-58
2023/09/19 08:47:07;;;;;;;3.70;2.15;;;;;;;18.97;57.32;100559.69;4171229;28;20067;-58
2023/09/19 08:49:27;;;;;;;5.50;2.13;;;;;;;18.87;56.80;100558.13;4167136;28;20507;-62
2023/09/19 08:51:41;;;;;;;4.75;2.30;;;;;;;18.97;56.84;100554.44;4163253;28;20067;-62
2023/09/19 08:53:52;;;;;;;5.15;2.20;;;;;;;18.98;58.10;100557.03;4156477;28;20045;-64
2023/09/19 08:55:57;;;;;;;6.35;2.05;;;;;;;18.99;56.76;100563.16;4163656;28;20404;-63
2023/09/19 08:58:04;;;;;;;6.00;1.92;;;;;;;18.97;56.72;100564.97;4147241;28;20061;-62
2023/09/19 09:00:12;;;;;;;8.20;2.40;;;;;;;19.01;56.64;100566.63;4147179;28;20041;-63
2023/09/19 09:02:18;;;;;;;6.50;2.50;;;;;;;19.01;56.72;100562.22;4161780;28;20041;-63
2023/09/19 09:04:23;;;;;;;6.97;1.83;;;;;;;18.94;55.69;100562.34;4148931;28;20069;-62
2023/09/19 09:06:28;;;;;;;4.55;2.13;;;;;;;18.99;56.38;100557.88;4147224;28;20046;-62
2023/09/19 09:08:32;;;;;;;5.00;2.08;;;;;;;18.98;55.54;100559.66;4147070;28;20425;-63
2023/09/19 09:10:36;;;;;;;3.40;1.85;;;;;;;18.95;55.66;100558.84;4146991;28;20046;-65
2023/09/19 09:12:43;;;;;;;3.72;1.95;;;;;;;18.97;56.07;100560.56;4156218;28;20037;-61
2023/09/19 09:14:47;;;;;;;7.53;2.35;;;;;;;19.10;55.98;100566.47;4159006;28;20041;-60
2023/09/19 09:16:50;;;;;;;3.67;2.03;;;;;;;19.16;55.66;100561.06;4166224;28;20503;-60
2023/09/19 09:18:54;;;;;;;4.30;2.05;;;;;;;19.24;55.24;100560.03;4164341;28;20105;-61
2023/09/19 09:20:57;;;;;;;;;;;;;;;19.28;54.78;100564.34;4166882;28;20128;-61
2023/09/19 09:23:03;;;;;;;6.85;2.40;;;;;;;19.33;55.11;100562.47;4165935;28;19949;-61
2023/09/19 09:25:07;;;;;;;4.60;1.63;;;;;;;19.43;54.95;100569.28;4156501;28;20088;-61
2023/09/19 09:27:13;;;;;;;4.93;2.10;;;;;;;19.49;54.34;100563.91;4156868;28;20073;-60
2023/09/19 09:29:39;;;;;;;6.88;2.05;;;;;;;19.56;53.69;100558.50;4161299;28;20473;-59
2023/09/19 09:31:42;;;;;;;9.40;2.15;;;;;;;19.59;53.77;100567.22;4158230;28;20378;-59
2023/09/19 09:33:54;;;;;;;6.95;2.50;;;;;;;19.59;53.51;100572.47;4165220;28;20033;-60
2023/09/19 09:36:00;;;;;;;4.32;2.03;;;;;;;19.61;53.65;100572.44;4163631;28;20060;-60
2023/09/19 09:38:08;;;;;;;7.10;2.20;;;;;;;19.45;53.71;100570.16;4165207;28;20029;-60
2023/09/19 09:40:33;;;;;;;5.75;2.30;;;;;;;19.45;54.10;100572.78;4165549;28;20068;-62
2023/09/19 09:42:38;;;;;;;;;;;;;;;19.53;54.93;100567.34;4166163;28;20053;-62